Lincolnville, Kansas
Current Conditions -  °F | °C
As of 3:55 PM on Monday 20 Oct 2014 (Local Time) from KEWK Reporting Station
Clear Clear  
Wind Chill: 77°   Ceiling: Unl
Heat Index: 78°   Visibility: 10mi
Dew Point: 46°   Wind: 7mph
Humidity: 34%   Direction: 40°NE
Pressure: 30.06"   Gusts: NA
Location:  38.49°N, 96.96°W
Report Text: KEWK 202055Z AUTO 04006KT 10SM CLR 25/08 A3006 RMK AO1 57014
Loading
Personal Weather Stations






























Interactive Weather Map New forecast layout! Learn more

10-Day Weather Forecast

Advertisements
Track Severe Weather on mobile